^^
Grace C. Lehan Memorial Weather Station Historical Data
Daily Summary for May 2, 2021 Units:  Metric    English   Both
Daily Weekly Monthly Yearly
  High: Low: Average:
Temperature: 24.4 °C 13.9 °C 18.4 °C
Dew Point: 16.8 °C 11.5 °C 13.7 °C
Humidity: 97% 47.4% 77%
Wind Speed: 17.7km/h 0km/h 5.1km/h
Wind Gust: 33.8km/h - -
Wind- - WNW
Pressure: 1014.1 hPa 1001.9 hPa -
Precipitation: 41.66 mm    
 
 
Tabular Data for May 2, 2021
Time Temperature Dew Point Pressure Wind Wind Speed Wind Gust Humidity Rainfall Rate (Hourly) solar
00:04 16.4 °C 15.9 °C 1001.9 hPa ENE 1.4 km/h 6.4 km/h 97% 25.4 mm 0 W/m2
00:09 16.4 °C 15.9 °C 1001.9 hPa North 3.7 km/h 20.9 km/h 97% 27.94 mm 0 W/m2
00:14 16.4 °C 15.9 °C 1002.6 hPa NW 8.5 km/h 27.4 km/h 97% 30.73 mm 0 W/m2
00:19 16.4 °C 15.9 °C 1002.9 hPa NNW 6.6 km/h 27.4 km/h 97% 33.27 mm 0 W/m2
00:24 16.4 °C 15.9 °C 1002.9 hPa NW 10.9 km/h 33.8 km/h 97% 36.07 mm 0 W/m2
00:29 16.2 °C 15.7 °C 1002.6 hPa NNE 4.2 km/h 33.8 km/h 96.7% 38.1 mm 0 W/m2
00:34 16.1 °C 15.4 °C 1002.9 hPa NE 3.4 km/h 33.8 km/h 96.1% 38.1 mm 0 W/m2
00:39 15.9 °C 15.5 °C 1003.6 hPa NNW 6 km/h 22.5 km/h 97% 32 mm 0 W/m2
00:44 15.9 °C 15.3 °C 1003.9 hPa NNW 7.2 km/h 22.5 km/h 96.7% 33.27 mm 0 W/m2
00:49 15.8 °C 15.2 °C 1003.6 hPa North 4 km/h 32.2 km/h 96% 34.29 mm 0 W/m2
00:54 15.7 °C 15.1 °C 1003.6 hPa NE 8.7 km/h 32.2 km/h 96.3% 35.56 mm 0 W/m2
00:59 15.6 °C 15.1 °C 1002.6 hPa ENE 10.6 km/h 33.8 km/h 97% 36.07 mm 0 W/m2
01:04 15.4 °C 14.9 °C 1002.3 hPa NE 9.2 km/h 33.8 km/h 96.3% 36.07 mm 0 W/m2
01:09 15.4 °C 14.7 °C 1002.6 hPa NE 10.6 km/h 32.2 km/h 96% 8.64 mm 0 W/m2
01:14 15.3 °C 14.7 °C 1002.6 hPa NE 6.8 km/h 32.2 km/h 96.3% 9.65 mm 0 W/m2
01:19 15.3 °C 14.8 °C 1002.6 hPa NNW 5.8 km/h 32.2 km/h 97% 10.67 mm 0 W/m2
01:24 15.2 °C 14.8 °C 1002.9 hPa NNW 7.1 km/h 32.2 km/h 97% 11.43 mm 0 W/m2
01:29 15.2 °C 14.7 °C 1003.3 hPa SW 6.6 km/h 32.2 km/h 97% 12.19 mm 0 W/m2
01:34 15.2 °C 14.6 °C 1003.6 hPa NW 10.1 km/h 32.2 km/h 96.7% 12.95 mm 0 W/m2
01:39 15.1 °C 14.4 °C 1003.6 hPa NNW 5.8 km/h 25.7 km/h 96% 13.46 mm 0 W/m2
01:44 14.9 °C 14.4 °C 1003.3 hPa NNW 6.3 km/h 25.7 km/h 96.3% 14.22 mm 0 W/m2
01:49 14.9 °C 14.4 °C 1002.9 hPa NNW 6 km/h 25.7 km/h 97% 14.99 mm 0 W/m2
01:54 14.8 °C 14.4 °C 1002.9 hPa NNW 5 km/h 25.7 km/h 97% 15.49 mm 0 W/m2
01:59 14.8 °C 14.2 °C 1002.9 hPa NNE 5.5 km/h 29 km/h 96.5% 16 mm 0 W/m2
02:04 14.8 °C 14.1 °C 1002.6 hPa North 5.3 km/h 29 km/h 96% 16 mm 0 W/m2
02:09 14.7 °C 14.1 °C 1002.3 hPa NNE 4.2 km/h 27.4 km/h 96.2% 11.43 mm 0 W/m2
02:14 14.7 °C 14.2 °C 1002.3 hPa NE 4.3 km/h 27.4 km/h 97% 12.45 mm 0 W/m2
02:19 14.6 °C 14.2 °C 1002.3 hPa NNE 4.5 km/h 27.4 km/h 97% 13.21 mm 0 W/m2
02:24 14.6 °C 14.1 °C 1002.3 hPa NE 5.1 km/h 27.4 km/h 97% 13.72 mm 0 W/m2
02:29 14.5 °C 14.1 °C 1002.3 hPa ENE 5 km/h 27.4 km/h 97% 14.22 mm 0 W/m2
02:34 14.4 °C 13.9 °C 1002.3 hPa NE 5.5 km/h 27.4 km/h 96.5% 14.22 mm 0 W/m2
02:39 14.3 °C 13.9 °C 1001.9 hPa NE 6.9 km/h 25.7 km/h 96.8% 9.65 mm 0 W/m2
02:44 14.3 °C 13.8 °C 1002.3 hPa NE 5.5 km/h 25.7 km/h 97% 10.41 mm 0 W/m2
02:49 14.3 °C 13.8 °C 1001.9 hPa NNE 4.8 km/h 25.7 km/h 97% 10.67 mm 0 W/m2
02:54 14.2 °C 13.8 °C 1002.3 hPa ENE 2.9 km/h 25.7 km/h 97% 10.92 mm 0 W/m2
02:59 14.2 °C 13.8 °C 1002.6 hPa SSW 2.4 km/h 25.7 km/h 97% 11.18 mm 0 W/m2
03:04 14.2 °C 13.7 °C 1002.6 hPa NE 4.3 km/h 27.4 km/h 97% 11.18 mm 0 W/m2
03:09 14.2 °C 13.7 °C 1002.9 hPa North 4.7 km/h 27.4 km/h 97% 8.64 mm 0 W/m2
03:14 14.2 °C 13.7 °C 1002.6 hPa NW 6.4 km/h 27.4 km/h 97% 8.89 mm 0 W/m2
03:19 14.2 °C 13.7 °C 1002.6 hPa North 5.6 km/h 27.4 km/h 97% 9.14 mm 0 W/m2
03:24 14.2 °C 13.7 °C 1002.6 hPa NNW 6.3 km/h 27.4 km/h 97% 9.14 mm 0 W/m2
03:29 14.2 °C 13.7 °C 1002.6 hPa NNW 5.3 km/h 27.4 km/h 97% 9.14 mm 0 W/m2
03:34 14.2 °C 13.7 °C 1002.6 hPa North 3.2 km/h 27.4 km/h 97% 9.14 mm 0 W/m2
03:39 14.1 °C 13.7 °C 1002.6 hPa NNE 2.7 km/h 20.9 km/h 97% 5.08 mm 0 W/m2
04:09 14 °C 13.6 °C 1002.6 hPa ENE 2.6 km/h 19.3 km/h 97% 5.33 mm 0 W/m2
04:14 14 °C 13.6 °C 1002.3 hPa ENE 3.2 km/h 19.3 km/h 97% 5.33 mm 0 W/m2
04:19 14 °C 13.6 °C 1002.3 hPa NE 2.6 km/h 19.3 km/h 97% 5.33 mm 0 W/m2
04:24 14 °C 13.5 °C 1001.9 hPa ENE 4.8 km/h 19.3 km/h 97% 5.33 mm 0 W/m2
04:29 13.9 °C 13.5 °C 1001.9 hPa North 5.1 km/h 24.1 km/h 97% 5.33 mm 0 W/m2
04:34 13.9 °C 13.5 °C 1001.9 hPa NNW 5.1 km/h 24.1 km/h 97% 5.33 mm 0 W/m2
04:39 14 °C 13.6 °C 1001.9 hPa NNW 4 km/h 14.5 km/h 97% 0.51 mm 0 W/m2
04:44 14 °C 13.6 °C 1002.3 hPa North 2.1 km/h 14.5 km/h 97% 0.51 mm 0 W/m2
04:49 14 °C 13.6 °C 1002.3 hPa NNW 3.1 km/h 24.1 km/h 97% 0.51 mm 0 W/m2
04:54 14 °C 13.6 °C 1002.3 hPa NNW 2.9 km/h 24.1 km/h 97% 0.51 mm 0 W/m2
04:59 14 °C 13.6 °C 1002.3 hPa North 3.5 km/h 24.1 km/h 97% 0.51 mm 0 W/m2
05:04 14 °C 13.5 °C 1002.3 hPa NNW 2.4 km/h 24.1 km/h 97% 0.51 mm 0 W/m2
05:09 13.9 °C 13.5 °C 1002.6 hPa NNW 2.3 km/h 17.7 km/h 97% 0 mm 0 W/m2
05:14 13.9 °C 13.5 °C 1002.6 hPa NW 3.1 km/h 17.7 km/h 97% 0 mm 0 W/m2
05:19 14 °C 13.5 °C 1002.9 hPa NNW 3.5 km/h 17.7 km/h 97% 0 mm 0 W/m2
05:24 14 °C 13.5 °C 1002.9 hPa NW 5.5 km/h 24.1 km/h 97% 0 mm 0 W/m2
05:29 14 °C 13.5 °C 1002.9 hPa NW 5.3 km/h 24.1 km/h 97% 0 mm 0 W/m2
05:34 13.9 °C 13.5 °C 1003.3 hPa NNW 6.4 km/h 25.7 km/h 97% 0 mm 0 W/m2
05:39 13.9 °C 13.5 °C 1003.3 hPa NNW 7.4 km/h 25.7 km/h 97% 0 mm 0 W/m2
05:44 13.9 °C 13.5 °C 1003.6 hPa NNW 7.2 km/h 25.7 km/h 97% 0 mm 0 W/m2
05:49 13.9 °C 13.5 °C 1003.6 hPa NW 6.9 km/h 25.7 km/h 97% 0 mm 0 W/m2
05:54 13.9 °C 13.5 °C 1003.9 hPa NNW 5.8 km/h 25.7 km/h 97% 0 mm 0 W/m2
05:59 13.9 °C 13.5 °C 1003.9 hPa NNW 2.6 km/h 25.7 km/h 97% 0 mm 0 W/m2
06:04 13.9 °C 13.5 °C 1003.9 hPa NW 6.9 km/h 25.7 km/h 97% 0 mm 0 W/m2
06:09 14 °C 13.6 °C 1003.9 hPa NNW 5.3 km/h 25.7 km/h 97% 0 mm 0 W/m2
06:14 14 °C 13.6 °C 1003.9 hPa NW 4.3 km/h 25.7 km/h 97% 0 mm 0 W/m2
06:19 14.1 °C 13.6 °C 1003.9 hPa NW 4.3 km/h 25.7 km/h 97% 0 mm 0 W/m2
06:24 14.1 °C 13.6 °C 1003.9 hPa NNW 5.5 km/h 25.7 km/h 97% 0 mm 0 W/m2
06:29 14.1 °C 13.7 °C 1003.9 hPa NNW 5.8 km/h 27.4 km/h 97% 0 mm 0 W/m2
06:34 14.1 °C 13.7 °C 1004.3 hPa NNW 6 km/h 27.4 km/h 97% 0 mm 0 W/m2
06:39 14.2 °C 13.7 °C 1004.3 hPa NNW 5.8 km/h 24.1 km/h 97% 0 mm 0 W/m2
06:44 14.2 °C 13.7 °C 1004.3 hPa NNW 5.8 km/h 24.1 km/h 97% 0 mm 7 W/m2
06:49 14.2 °C 13.7 °C 1004.6 hPa NNW 6.1 km/h 24.1 km/h 97% 0 mm 11 W/m2
06:54 14.2 °C 13.8 °C 1004.6 hPa NW 3.9 km/h 24.1 km/h 97% 0 mm 11 W/m2
06:59 14.3 °C 13.8 °C 1004.6 hPa North 3.1 km/h 24.1 km/h 97% 0 mm 7 W/m2
07:04 14.3 °C 13.8 °C 1004.6 hPa North 5.5 km/h 24.1 km/h 97% 0 mm 21 W/m2
07:09 14.3 °C 13.9 °C 1004.6 hPa NNW 6.4 km/h 22.5 km/h 97% 0 mm 33 W/m2
07:14 14.4 °C 13.9 °C 1005 hPa NNW 3.1 km/h 22.5 km/h 97% 0 mm 44 W/m2
07:19 14.4 °C 14 °C 1005 hPa NW 4.7 km/h 22.5 km/h 97% 0 mm 49 W/m2
07:24 14.6 °C 14.1 °C 1005 hPa NNW 5.1 km/h 22.5 km/h 97% 0 mm 65 W/m2
07:29 14.6 °C 14.2 °C 1005 hPa NNW 5.6 km/h 22.5 km/h 97% 0 mm 67 W/m2
07:34 14.7 °C 14.1 °C 1005 hPa NNW 5.1 km/h 22.5 km/h 96.1% 0 mm 70 W/m2
07:39 14.8 °C 14.1 °C 1005 hPa NW 2.6 km/h 17.7 km/h 96% 0 mm 91 W/m2
07:44 14.9 °C 14.3 °C 1005 hPa NW 2.9 km/h 17.7 km/h 96% 0 mm 97 W/m2
07:49 15 °C 14.4 °C 1005.3 hPa NW 6.3 km/h 22.5 km/h 96% 0 mm 125 W/m2
07:54 15.2 °C 14.5 °C 1005.3 hPa NNW 4.8 km/h 22.5 km/h 96% 0 mm 135 W/m2
07:59 15.3 °C 14.7 °C 1005.3 hPa NW 3.9 km/h 22.5 km/h 96% 0 mm 135 W/m2
08:00 15.4 °C 14.8 °C 1005.3 hPa Calm   22.5 km/h 96% 0 mm 125 W/m2
08:09 15.6 °C 14.8 °C 1005.6 hPa NW 3.4 km/h 17.7 km/h 95% 0 mm 105 W/m2
08:14 15.8 °C 14.9 °C 1005.6 hPa NNW 5.1 km/h 20.9 km/h 94.8% 0 mm 130 W/m2
08:19 15.9 °C 14.9 °C 1005.6 hPa NNW 7.2 km/h 20.9 km/h 94% 0 mm 128 W/m2
08:24 16.1 °C 14.9 °C 1006 hPa NNW 5.8 km/h 20.9 km/h 93.1% 0 mm 116 W/m2
08:29 16.2 °C 15.1 °C 1005.6 hPa NNW 6.3 km/h 22.5 km/h 92.8% 0 mm 483 W/m2
08:34 16.5 °C 15.2 °C 1006 hPa NNW 7.7 km/h 22.5 km/h 92% 0 mm 383 W/m2
08:39 16.7 °C 15.3 °C 1006 hPa NNW 9.2 km/h 24.1 km/h 91% 0 mm 160 W/m2
08:44 16.8 °C 15.1 °C 1006 hPa NW 9.7 km/h 29 km/h 89.4% 0 mm 153 W/m2
08:49 16.9 °C 15.1 °C 1006.3 hPa NNW 4.8 km/h 29 km/h 89% 0 mm 127 W/m2
08:54 16.9 °C 15.1 °C 1006.3 hPa North 4.5 km/h 29 km/h 89% 0 mm 134 W/m2
08:59 16.9 °C 14.9 °C 1006.3 hPa NW 7.6 km/h 29 km/h 87.9% 0 mm 130 W/m2
09:04 17.1 °C 14.9 °C 1006.3 hPa NNW 7.2 km/h 29 km/h 87.1% 0 mm 225 W/m2
09:09 17.2 °C 15 °C 1006.7 hPa NNW 6 km/h 29 km/h 87% 0 mm 225 W/m2
09:14 17.4 °C 15.1 °C 1006.7 hPa NW 6.6 km/h 29 km/h 86% 0 mm 415 W/m2
09:19 17.8 °C 15.3 °C 1006.7 hPa NW 4 km/h 29 km/h 85.7% 0 mm 415 W/m2
09:24 18.4 °C 16 °C 1006.7 hPa NW 3.7 km/h 29 km/h 85.9% 0 mm 737 W/m2
09:29 19.1 °C 16.2 °C 1006.7 hPa NW 3.7 km/h 29 km/h 83.4% 0 mm 592 W/m2
09:34 19.6 °C 16.1 °C 1007 hPa NNE 3.2 km/h 29 km/h 80% 0 mm 608 W/m2
09:39 20 °C 16.4 °C 1007 hPa North 3.4 km/h 16.1 km/h 79.7% 0 mm 640 W/m2
09:44 20.3 °C 16.2 °C 1007 hPa NNW 1.3 km/h 16.1 km/h 77.2% 0 mm 652 W/m2
09:49 20.6 °C 16.1 °C 1007 hPa NNW 3.2 km/h 19.3 km/h 75.6% 0 mm 696 W/m2
09:54 20.8 °C 16.6 °C 1007 hPa North 4.2 km/h 19.3 km/h 76.5% 0 mm 712 W/m2
09:59 21.2 °C 16.6 °C 1007 hPa NW 3.7 km/h 19.3 km/h 74.9% 0 mm 766 W/m2
10:04 21.4 °C 16.4 °C 1007 hPa NNW 1.9 km/h 19.3 km/h 73.4% 0 mm 689 W/m2
10:09 21.7 °C 16.7 °C 1007 hPa NNW 2.6 km/h 17.7 km/h 73.3% 0 mm 703 W/m2
10:14 21.9 °C 16.6 °C 1007 hPa North 1.8 km/h 17.7 km/h 71.8% 0 mm 717 W/m2
10:19 22.1 °C 16.8 °C 1007 hPa NNW 6.9 km/h 22.5 km/h 72.1% 0 mm 724 W/m2
10:24 22.1 °C 16.2 °C 1007 hPa NNW 8.9 km/h 22.5 km/h 69.2% 0 mm 749 W/m2
10:29 22.1 °C 15.9 °C 1007 hPa NW 7.9 km/h 22.5 km/h 67.9% 0 mm 752 W/m2
10:34 22.2 °C 16.5 °C 1007 hPa NNW 5 km/h 22.5 km/h 70.2% 0 mm 756 W/m2
10:39 22.3 °C 16.3 °C 1007 hPa NW 5.1 km/h 17.7 km/h 68.7% 0 mm 765 W/m2
10:44 22.6 °C 16.6 °C 1007 hPa North 2.9 km/h 17.7 km/h 69% 0 mm 779 W/m2
10:49 22.8 °C 16.6 °C 1007.3 hPa NW 8.9 km/h 25.7 km/h 67.8% 0 mm 793 W/m2
10:54 22.8 °C 16.1 °C 1007.3 hPa NW 4.3 km/h 25.7 km/h 65.7% 0 mm 812 W/m2
10:59 22.8 °C 15.8 °C 1007.3 hPa NW 6.4 km/h 27.4 km/h 64.6% 0 mm 803 W/m2
11:04 22.9 °C 15.9 °C 1007.3 hPa NW 4.5 km/h 27.4 km/h 65% 0 mm 812 W/m2
11:09 23.1 °C 15.3 °C 1007.3 hPa North 4.2 km/h 25.7 km/h 61.8% 0 mm 817 W/m2
11:14 23.1 °C 15.3 °C 1007.3 hPa NNE 3.2 km/h 25.7 km/h 61.7% 0 mm 824 W/m2
11:19 23.3 °C 15.7 °C 1007.3 hPa NNW 2.9 km/h 25.7 km/h 62.7% 0 mm 833 W/m2
11:24 23.4 °C 15.1 °C 1007.3 hPa NW 6.8 km/h 25.7 km/h 59.7% 0 mm 838 W/m2
11:29 23.6 °C 15.7 °C 1007.3 hPa NNE 3.9 km/h 25.7 km/h 61.3% 0 mm 847 W/m2
11:34 23.7 °C 15.4 °C 1007.3 hPa NNW 6 km/h 25.7 km/h 59.7% 0 mm 856 W/m2
11:39 23.7 °C 15.5 °C 1007.3 hPa NNW 4.2 km/h 17.7 km/h 60% 0 mm 881 W/m2
11:44 23.8 °C 15.8 °C 1007.3 hPa NW 6 km/h 30.6 km/h 60.7% 0 mm 960 W/m2
11:49 24 °C 16.2 °C 1007.3 hPa NW 4.2 km/h 30.6 km/h 61.7% 0 mm 944 W/m2
11:54 24.2 °C 15.2 °C 1007.3 hPa NW 9 km/h 30.6 km/h 57.2% 0 mm 921 W/m2
11:59 24.2 °C 14.7 °C 1007.3 hPa NNW 5.1 km/h 30.6 km/h 55.3% 0 mm 926 W/m2
12:00 24.1 °C 15.1 °C 1007.3 hPa NE 1.6 km/h 30.6 km/h 57% 0 mm 202 W/m2
12:09 23.8 °C 14.2 °C 1007.3 hPa NNW 4.2 km/h 14.5 km/h 54.8% 0 mm 69 W/m2
12:14 23.7 °C 14.5 °C 1007.3 hPa North 4.2 km/h 20.9 km/h 56.4% 0 mm 120 W/m2
12:19 23.5 °C 14 °C 1007.3 hPa NNW 7.2 km/h 22.5 km/h 55.1% 0 mm 142 W/m2
12:24 23.4 °C 14.5 °C 1007.3 hPa NW 1 km/h 22.5 km/h 57.3% 0 mm 135 W/m2
12:29 23.5 °C 14.6 °C 1007.3 hPa NW 4.8 km/h 22.5 km/h 57.6% 0 mm 130 W/m2
12:34 23.6 °C 14 °C 1007.7 hPa NW 9.2 km/h 22.5 km/h 55% 0 mm 796 W/m2
12:39 23.6 °C 13.5 °C 1007.7 hPa NW 8.4 km/h 22.5 km/h 53.2% 0 mm 796 W/m2
12:44 23.5 °C 12.8 °C 1007.7 hPa NW 9.5 km/h 24.1 km/h 51.2% 0 mm 234 W/m2
12:49 23.4 °C 13.3 °C 1007.7 hPa NW 2.9 km/h 24.1 km/h 52.7% 0 mm 313 W/m2
12:54 23.6 °C 13.1 °C 1007.7 hPa NW 5.5 km/h 24.1 km/h 52% 0 mm 925 W/m2
12:59 23.6 °C 12.8 °C 1007.7 hPa NW 9.3 km/h 24.1 km/h 50.6% 0 mm 916 W/m2
13:04 23.6 °C 12.4 °C 1007.7 hPa NNW 5.1 km/h 24.1 km/h 49.4% 0 mm 912 W/m2
13:09 23.6 °C 12.3 °C 1007.7 hPa NW 5 km/h 22.5 km/h 48.9% 0 mm 911 W/m2
13:14 23.7 °C 12.3 °C 1007.7 hPa NW 9.3 km/h 22.5 km/h 49.1% 0 mm 907 W/m2
13:19 23.7 °C 12.5 °C 1007.7 hPa NW 4.8 km/h 22.5 km/h 49.6% 0 mm 271 W/m2
13:24 23.6 °C 12.7 °C 1007.7 hPa NNW 3.9 km/h 22.5 km/h 50.3% 0 mm 911 W/m2
13:29 23.6 °C 12.9 °C 1007.7 hPa WNW 10.9 km/h 24.1 km/h 50.9% 0 mm 935 W/m2
13:34 23.7 °C 12.8 °C 1007.7 hPa NW 7.4 km/h 24.1 km/h 50.7% 0 mm 911 W/m2
13:39 23.7 °C 12.9 °C 1007.7 hPa NW 6.1 km/h 19.3 km/h 50.9% 0 mm 900 W/m2
13:44 23.8 °C 12.9 °C 1008 hPa NW 8.2 km/h 27.4 km/h 50.7% 0 mm 826 W/m2
13:49 23.7 °C 12.4 °C 1008 hPa NW 11.7 km/h 27.4 km/h 49% 0 mm 886 W/m2
13:54 23.6 °C 12.1 °C 1008 hPa WNW 9.7 km/h 29 km/h 48.3% 0 mm 888 W/m2
13:59 23.5 °C 11.9 °C 1008 hPa NW 5.8 km/h 29 km/h 48.3% 0 mm 819 W/m2
14:04 23.4 °C 12.6 °C 1008 hPa NW 5.8 km/h 29 km/h 50.4% 0 mm 891 W/m2
14:09 23.6 °C 12.4 °C 1008 hPa NNW 6.8 km/h 19.3 km/h 49.6% 0 mm 904 W/m2
14:14 23.7 °C 12.4 °C 1008 hPa NW 6.1 km/h 29 km/h 49.3% 0 mm 962 W/m2
14:19 23.8 °C 12.9 °C 1008.4 hPa WNW 5.8 km/h 29 km/h 50.5% 0 mm 962 W/m2
14:24 24.1 °C 12.5 °C 1008.4 hPa NW 5.6 km/h 29 km/h 48.3% 0 mm 874 W/m2
14:29 24.3 °C 12.6 °C 1008.4 hPa NW 10.3 km/h 29 km/h 48% 0 mm 951 W/m2
14:34 24.3 °C 12.8 °C 1008.4 hPa NNW 4.5 km/h 29 km/h 48.8% 0 mm 937 W/m2
14:39 24.4 °C 12.8 °C 1008.4 hPa NW 6.4 km/h 20.9 km/h 48.3% 0 mm 918 W/m2
14:44 24.4 °C 12.6 °C 1008.4 hPa NW 9.5 km/h 24.1 km/h 47.8% 0 mm 872 W/m2
14:49 24.1 °C 12.6 °C 1008.4 hPa NW 11.9 km/h 27.4 km/h 48.7% 0 mm 888 W/m2
14:54 23.8 °C 12.8 °C 1008.4 hPa WNW 8 km/h 27.4 km/h 49.8% 0 mm 888 W/m2
14:59 23.7 °C 12.7 °C 1008.4 hPa WNW 11.3 km/h 27.4 km/h 50.3% 0 mm 891 W/m2
15:04 23.8 °C 12.8 °C 1008.4 hPa WNW 9.3 km/h 30.6 km/h 50.3% 0 mm 921 W/m2
15:09 23.8 °C 12.9 °C 1008.7 hPa WNW 9.8 km/h 30.6 km/h 50.4% 0 mm 921 W/m2
15:14 23.7 °C 12.8 °C 1008.7 hPa NW 9.8 km/h 30.6 km/h 50.3% 0 mm 921 W/m2
15:19 23.6 °C 12.8 °C 1008.7 hPa NW 7.7 km/h 30.6 km/h 50.8% 0 mm 821 W/m2
15:24 23.7 °C 12.6 °C 1008.7 hPa NW 9.3 km/h 30.6 km/h 49.7% 0 mm 765 W/m2
15:29 23.8 °C 12.9 °C 1008.7 hPa NW 4.7 km/h 30.6 km/h 50.5% 0 mm 765 W/m2
15:34 23.9 °C 12.1 °C 1008.7 hPa NW 11.9 km/h 30.6 km/h 47.4% 0 mm 831 W/m2
15:39 23.7 °C 12.1 °C 1009 hPa NW 5.1 km/h 24.1 km/h 48% 0 mm 765 W/m2
15:44 23.7 °C 12.2 °C 1009 hPa NW 5.3 km/h 24.1 km/h 48.4% 0 mm 744 W/m2
15:49 23.8 °C 12.7 °C 1009 hPa West 9.8 km/h 24.1 km/h 49.8% 0 mm 735 W/m2
15:54 24 °C 12.8 °C 1009 hPa NW 13.8 km/h 30.6 km/h 49.4% 0 mm 742 W/m2
15:59 23.9 °C 12.9 °C 1009 hPa WNW 11.1 km/h 30.6 km/h 50% 0 mm 721 W/m2
16:00 23.9 °C 13.2 °C 1009 hPa West 17.7 km/h 30.6 km/h 51% 0 mm 596 W/m2
16:09 23.5 °C 13 °C 1009.4 hPa NW 11.6 km/h 25.7 km/h 51.7% 0 mm 95 W/m2
16:14 23.2 °C 12.4 °C 1009.4 hPa NW 11.7 km/h 25.7 km/h 50.8% 0 mm 58 W/m2
16:19 22.8 °C 12.8 °C 1009.4 hPa NW 5.5 km/h 25.7 km/h 53.2% 0 mm 58 W/m2
16:24 22.6 °C 12.7 °C 1009.7 hPa NW 5 km/h 25.7 km/h 53.8% 0 mm 35 W/m2
16:29 22.2 °C 12.7 °C 1009.7 hPa WNW 5.5 km/h 25.7 km/h 54.8% 0 mm 51 W/m2
16:34 21.7 °C 12.3 °C 1009.7 hPa NW 7.9 km/h 25.7 km/h 55.1% 0 mm 53 W/m2
16:39 21.4 °C 12.6 °C 1009.7 hPa NW 4.5 km/h 24.1 km/h 57.1% 0 mm 47 W/m2
16:44 21.4 °C 12.8 °C 1009.7 hPa WNW 6.3 km/h 24.1 km/h 58% 0 mm 46 W/m2
17:30 20.7 °C 13.4 °C 1010.4 hPa WNW 6.4 km/h 22.5 km/h 63% 0 mm 43 W/m2
18:00 20.3 °C 13.7 °C 1010.7 hPa NW 1.6 km/h 14.5 km/h 66% 0 mm 35 W/m2
18:30 19.8 °C 13.8 °C 1011.1 hPa Calm   8 km/h 68% 0 mm 19 W/m2
19:00 19.8 °C 13.2 °C 1011.4 hPa NW 3.2 km/h 22.5 km/h 66% 0 mm 23 W/m2
19:30 19.1 °C 13.2 °C 1011.7 hPa NW 3.2 km/h 20.9 km/h 69% 0 mm 2 W/m2
20:04 18.3 °C 12.8 °C 1012.4 hPa Calm   3.2 km/h 70% 0 mm 0 W/m2
20:09 18.3 °C 12.7 °C 1012.8 hPa Calm   3.2 km/h 70% 0 mm 0 W/m2
20:14 18.2 °C 12.7 °C 1012.8 hPa NW 1.3 km/h 9.7 km/h 70.3% 0 mm 0 W/m2
20:19 18.1 °C 12.8 °C 1012.8 hPa WNW 2.6 km/h 11.3 km/h 71% 0 mm 0 W/m2
20:24 18.1 °C 12.7 °C 1012.8 hPa NW 2.6 km/h 11.3 km/h 71% 0 mm 0 W/m2
20:29 18.1 °C 12.6 °C 1012.8 hPa WNW 0.5 km/h 11.3 km/h 70.6% 0 mm 0 W/m2
20:34 18 °C 12.7 °C 1013.1 hPa NW 1.9 km/h 11.3 km/h 71% 0 mm 0 W/m2
20:39 18 °C 12.6 °C 1013.1 hPa NNW 0.5 km/h 9.7 km/h 70.6% 0 mm 0 W/m2
20:44 17.9 °C 12.4 °C 1013.1 hPa NNW 2.1 km/h 17.7 km/h 70% 0 mm 0 W/m2
20:49 17.9 °C 12.4 °C 1013.1 hPa NW 1 km/h 17.7 km/h 70% 0 mm 0 W/m2
20:54 17.9 °C 12.3 °C 1013.1 hPa NW 4.2 km/h 17.7 km/h 69.8% 0 mm 0 W/m2
20:59 17.8 °C 12.2 °C 1013.1 hPa NW 4 km/h 17.7 km/h 69.7% 0 mm 0 W/m2
21:04 17.8 °C 12.3 °C 1013.1 hPa NNW 2.3 km/h 17.7 km/h 70% 0 mm 0 W/m2
21:09 17.8 °C 12.2 °C 1013.1 hPa NNW 3.9 km/h 20.9 km/h 70% 0 mm 0 W/m2
21:14 17.7 °C 12.2 °C 1013.1 hPa NW 3.2 km/h 20.9 km/h 70% 0 mm 0 W/m2
21:19 17.6 °C 12.1 °C 1013.1 hPa NW 3.4 km/h 20.9 km/h 70% 0 mm 0 W/m2
21:24 17.6 °C 12.1 °C 1013.1 hPa NW 4.8 km/h 20.9 km/h 70.3% 0 mm 0 W/m2
21:29 17.5 °C 12.1 °C 1013.1 hPa NW 4.2 km/h 24.1 km/h 70.5% 0 mm 0 W/m2
21:34 17.5 °C 12.1 °C 1013.1 hPa NW 3.9 km/h 24.1 km/h 70.3% 0 mm 0 W/m2
21:39 17.5 °C 12.2 °C 1013.1 hPa NW 3.2 km/h 14.5 km/h 70.9% 0 mm 0 W/m2
21:44 17.6 °C 12.2 °C 1013.1 hPa NW 1.6 km/h 14.5 km/h 71% 0 mm 0 W/m2
21:49 17.6 °C 12.2 °C 1013.1 hPa WNW 6.8 km/h 22.5 km/h 71% 0 mm 0 W/m2
21:54 17.6 °C 12.2 °C 1013.1 hPa WNW 5.3 km/h 22.5 km/h 71% 0 mm 0 W/m2
21:59 17.5 °C 12.1 °C 1013.1 hPa NW 4 km/h 22.5 km/h 70.5% 0 mm 0 W/m2
22:04 17.5 °C 12.1 °C 1013.1 hPa NW 3.4 km/h 22.5 km/h 70.5% 0 mm 0 W/m2
22:09 17.5 °C 12.2 °C 1013.1 hPa NW 6.8 km/h 19.3 km/h 71% 0 mm 0 W/m2
22:14 17.4 °C 11.9 °C 1013.1 hPa NW 5.8 km/h 24.1 km/h 70% 0 mm 0 W/m2
22:19 17.3 °C 12 °C 1013.1 hPa NW 9 km/h 24.1 km/h 70.8% 0 mm 0 W/m2
22:24 17.3 °C 11.9 °C 1013.1 hPa NNW 4.5 km/h 24.1 km/h 71% 0 mm 0 W/m2
22:29 17.2 °C 11.9 °C 1013.1 hPa NW 2.9 km/h 24.1 km/h 71% 0 mm 0 W/m2
22:34 17.1 °C 11.9 °C 1013.4 hPa NW 4.2 km/h 24.1 km/h 71.6% 0 mm 0 W/m2
22:39 16.9 °C 11.9 °C 1013.4 hPa NW 4.2 km/h 22.5 km/h 71.9% 0 mm 0 W/m2
22:44 16.8 °C 11.8 °C 1013.4 hPa NNW 2.1 km/h 22.5 km/h 72% 0 mm 0 W/m2
22:49 16.8 °C 11.8 °C 1013.4 hPa NNW 3.9 km/h 22.5 km/h 72.3% 0 mm 0 W/m2
22:54 16.7 °C 11.8 °C 1013.8 hPa NW 0.6 km/h 22.5 km/h 72.5% 0 mm 0 W/m2
22:59 16.7 °C 11.6 °C 1013.8 hPa Calm   22.5 km/h 72.1% 0 mm 0 W/m2
23:04 16.6 °C 11.7 °C 1013.8 hPa NNW 1 km/h 22.5 km/h 73% 0 mm 0 W/m2
23:09 16.6 °C 11.7 °C 1013.8 hPa NW 2.3 km/h 11.3 km/h 73% 0 mm 0 W/m2
23:14 16.4 °C 11.8 °C 1013.8 hPa NW 1.3 km/h 11.3 km/h 73.8% 0 mm 0 W/m2
23:19 16.4 °C 11.7 °C 1013.8 hPa NW 0.6 km/h 11.3 km/h 74% 0 mm 0 W/m2
23:24 16.3 °C 11.7 °C 1013.8 hPa NW 0.8 km/h 11.3 km/h 74% 0 mm 0 W/m2
23:29 16.2 °C 11.7 °C 1013.8 hPa NNW 1.3 km/h 11.3 km/h 74.8% 0 mm 0 W/m2
23:34 16.2 °C 11.7 °C 1013.8 hPa NW 1.1 km/h 11.3 km/h 75% 0 mm 0 W/m2
23:39 16.1 °C 11.7 °C 1014.1 hPa WNW 1.3 km/h 11.3 km/h 75% 0 mm 0 W/m2
23:44 16 °C 11.6 °C 1014.1 hPa WNW 0.3 km/h 11.3 km/h 75% 0 mm 0 W/m2
23:49 15.9 °C 11.6 °C 1014.1 hPa WNW 0.2 km/h 11.3 km/h 75% 0 mm 0 W/m2
23:54 15.9 °C 11.5 °C 1014.1 hPa Calm   11.3 km/h 75% 0 mm 0 W/m2
23:59 15.8 °C 11.6 °C 1014.1 hPa Calm   11.3 km/h 75.8% 0 mm 0 W/m2
Hartford County Weather
Compliments of Weather Underground - 4 mb